Home

PKWA Terminal Aerodrome Forecast (TAF)small logo


TAF provided by NWS Guam
2014/10/25 12:25
TAF PKWA 251120Z 2512/2612 06010KT P6SM VCSH FEW018 SCT050 BKN140 
      TEMPO 2513/2516 -SHRA SCT016 BKN030

      



Site Map | Contact Us | Copyright © 2007 Atmospheric Technology Services Company. All rights reserved.